You are not logged in, Click here to log in
麥克坦-宿霧國際機場CEB / RPVM 菲律賓米沙鄢群島
ICAO: RPVM Country: 菲律賓米沙鄢群島
Latitude: 10.3133 Longitude: 123.983
Total Arrivals: 10 Total Departures: 10
Latest Arrival: 5J301 (RCTP-RPVM)Jeff. Hsieh Latest Departure: BR282 (RPVM-RCTP)Jeff. Hsieh
Scenery:
METAR : RPVM 151000Z VRB01KT 9999 FEW018CB SCT020 OVC100 30/25 Q1008 RMK A2977 CB NE-E SE SW W NW BD

麥克坦-宿霧國際機場CEB